sensor_id;sensor_type;location;lat;lon;timestamp;P1;durP1;ratioP1;P2;durP2;ratioP2
49175;SDS011;35012;47.200;9.748;2024-03-02T00:00:18;3.80;;;3.60;;
49175;SDS011;35012;47.200;9.748;2024-03-02T00:02:46;3.17;;;3.07;;
49175;SDS011;35012;47.200;9.748;2024-03-02T00:05:13;3.63;;;3.43;;
49175;SDS011;35012;47.200;9.748;2024-03-02T00:07:44;3.17;;;2.97;;
49175;SDS011;35012;47.200;9.748;2024-03-02T00:10:20;3.30;;;3.10;;
49175;SDS011;35012;47.200;9.748;2024-03-02T00:12:54;4.00;;;3.77;;
49175;SDS011;35012;47.200;9.748;2024-03-02T00:15:42;3.60;;;3.30;;
49175;SDS011;35012;47.200;9.748;2024-03-02T00:18:58;2.67;;;2.57;;
49175;SDS011;35012;47.200;9.748;2024-03-02T00:21:05;3.57;;;3.37;;
49175;SDS011;35012;47.200;9.748;2024-03-02T00:23:31;3.50;;;3.33;;
49175;SDS011;35012;47.200;9.748;2024-03-02T00:25:57;2.90;;;2.80;;
49175;SDS011;35012;47.200;9.748;2024-03-02T00:28:24;3.00;;;2.90;;
49175;SDS011;35012;47.200;9.748;2024-03-02T00:30:51;2.67;;;2.57;;
49175;SDS011;35012;47.200;9.748;2024-03-02T00:33:19;2.60;;;2.50;;
49175;SDS011;35012;47.200;9.748;2024-03-02T00:35:46;2.43;;;2.33;;
49175;SDS011;35012;47.200;9.748;2024-03-02T00:38:13;2.10;;;2.00;;
49175;SDS011;35012;47.200;9.748;2024-03-02T00:40:41;2.83;;;2.73;;
49175;SDS011;35012;47.200;9.748;2024-03-02T00:43:10;2.53;;;2.43;;
49175;SDS011;35012;47.200;9.748;2024-03-02T00:45:44;2.80;;;2.70;;
49175;SDS011;35012;47.200;9.748;2024-03-02T00:48:09;3.33;;;3.13;;
49175;SDS011;35012;47.200;9.748;2024-03-02T00:50:35;2.87;;;2.77;;
49175;SDS011;35012;47.200;9.748;2024-03-02T00:53:01;3.23;;;3.10;;
49175;SDS011;35012;47.200;9.748;2024-03-02T00:55:27;3.90;;;3.60;;
49175;SDS011;35012;47.200;9.748;2024-03-02T00:57:53;2.70;;;2.57;;
49175;SDS011;35012;47.200;9.748;2024-03-02T01:00:19;3.10;;;2.90;;
49175;SDS011;35012;47.200;9.748;2024-03-02T01:02:44;2.30;;;2.20;;
49175;SDS011;35012;47.200;9.748;2024-03-02T01:05:11;3.17;;;2.87;;
49175;SDS011;35012;47.200;9.748;2024-03-02T01:07:38;3.50;;;3.27;;
49175;SDS011;35012;47.200;9.748;2024-03-02T01:10:04;2.60;;;2.50;;
49175;SDS011;35012;47.200;9.748;2024-03-02T01:12:30;2.80;;;2.70;;
49175;SDS011;35012;47.200;9.748;2024-03-02T01:14:55;2.50;;;2.20;;
49175;SDS011;35012;47.200;9.748;2024-03-02T01:17:21;2.40;;;2.30;;
49175;SDS011;35012;47.200;9.748;2024-03-02T01:19:47;2.53;;;2.43;;
49175;SDS011;35012;47.200;9.748;2024-03-02T01:22:13;3.33;;;3.13;;
49175;SDS011;35012;47.200;9.748;2024-03-02T01:24:38;2.80;;;2.70;;
49175;SDS011;35012;47.200;9.748;2024-03-02T01:27:04;2.50;;;2.40;;
49175;SDS011;35012;47.200;9.748;2024-03-02T01:29:30;2.70;;;2.60;;
49175;SDS011;35012;47.200;9.748;2024-03-02T01:31:55;2.80;;;2.60;;
49175;SDS011;35012;47.200;9.748;2024-03-02T01:34:21;2.87;;;2.77;;
49175;SDS011;35012;47.200;9.748;2024-03-02T01:36:47;2.87;;;2.77;;
49175;SDS011;35012;47.200;9.748;2024-03-02T01:39:12;2.70;;;2.60;;
49175;SDS011;35012;47.200;9.748;2024-03-02T01:41:38;2.60;;;2.50;;
49175;SDS011;35012;47.200;9.748;2024-03-02T01:44:03;2.40;;;2.30;;
49175;SDS011;35012;47.200;9.748;2024-03-02T01:46:29;2.83;;;2.73;;
49175;SDS011;35012;47.200;9.748;2024-03-02T01:48:55;1.93;;;1.83;;
49175;SDS011;35012;47.200;9.748;2024-03-02T01:51:20;2.63;;;2.53;;
49175;SDS011;35012;47.200;9.748;2024-03-02T01:53:46;2.67;;;2.57;;
49175;SDS011;35012;47.200;9.748;2024-03-02T01:56:12;2.30;;;2.20;;
49175;SDS011;35012;47.200;9.748;2024-03-02T01:58:37;3.23;;;2.93;;
49175;SDS011;35012;47.200;9.748;2024-03-02T02:01:03;2.50;;;2.40;;
49175;SDS011;35012;47.200;9.748;2024-03-02T02:03:29;2.83;;;2.63;;
49175;SDS011;35012;47.200;9.748;2024-03-02T02:05:54;2.50;;;2.40;;
49175;SDS011;35012;47.200;9.748;2024-03-02T02:08:20;2.30;;;2.20;;
49175;SDS011;35012;47.200;9.748;2024-03-02T02:10:45;2.00;;;1.90;;
49175;SDS011;35012;47.200;9.748;2024-03-02T02:13:11;2.40;;;2.30;;
49175;SDS011;35012;47.200;9.748;2024-03-02T02:15:37;2.60;;;2.50;;
49175;SDS011;35012;47.200;9.748;2024-03-02T02:18:02;2.40;;;2.30;;
49175;SDS011;35012;47.200;9.748;2024-03-02T02:20:29;2.50;;;2.40;;
49175;SDS011;35012;47.200;9.748;2024-03-02T02:25:23;2.63;;;2.53;;
49175;SDS011;35012;47.200;9.748;2024-03-02T02:27:49;2.50;;;2.40;;
49175;SDS011;35012;47.200;9.748;2024-03-02T02:30:18;2.20;;;2.10;;
49175;SDS011;35012;47.200;9.748;2024-03-02T02:32:53;2.57;;;2.47;;
49175;SDS011;35012;47.200;9.748;2024-03-02T02:35:19;4.10;;;3.80;;
49175;SDS011;35012;47.200;9.748;2024-03-02T02:37:45;4.40;;;4.10;;
49175;SDS011;35012;47.200;9.748;2024-03-02T02:40:12;4.03;;;3.73;;
49175;SDS011;35012;47.200;9.748;2024-03-02T02:42:38;3.20;;;3.00;;
49175;SDS011;35012;47.200;9.748;2024-03-02T02:45:05;3.20;;;3.00;;
49175;SDS011;35012;47.200;9.748;2024-03-02T02:47:31;3.00;;;2.90;;
49175;SDS011;35012;47.200;9.748;2024-03-02T02:49:58;3.73;;;3.53;;
49175;SDS011;35012;47.200;9.748;2024-03-02T02:52:24;2.87;;;2.73;;
49175;SDS011;35012;47.200;9.748;2024-03-02T02:54:50;2.97;;;2.87;;
49175;SDS011;35012;47.200;9.748;2024-03-02T02:57:16;2.67;;;2.57;;
49175;SDS011;35012;47.200;9.748;2024-03-02T02:59:42;2.70;;;2.60;;
49175;SDS011;35012;47.200;9.748;2024-03-02T03:02:07;2.73;;;2.63;;
49175;SDS011;35012;47.200;9.748;2024-03-02T03:04:33;1.90;;;1.80;;
49175;SDS011;35012;47.200;9.748;2024-03-02T03:06:59;2.87;;;2.77;;
49175;SDS011;35012;47.200;9.748;2024-03-02T03:09:24;2.30;;;2.20;;
49175;SDS011;35012;47.200;9.748;2024-03-02T03:11:50;2.73;;;2.63;;
49175;SDS011;35012;47.200;9.748;2024-03-02T03:14:16;3.00;;;2.90;;
49175;SDS011;35012;47.200;9.748;2024-03-02T03:16:41;3.00;;;2.90;;
49175;SDS011;35012;47.200;9.748;2024-03-02T03:19:07;3.00;;;2.90;;
49175;SDS011;35012;47.200;9.748;2024-03-02T03:21:33;2.80;;;2.70;;
49175;SDS011;35012;47.200;9.748;2024-03-02T03:23:58;2.53;;;2.43;;
49175;SDS011;35012;47.200;9.748;2024-03-02T03:26:24;2.60;;;2.50;;
49175;SDS011;35012;47.200;9.748;2024-03-02T03:28:49;2.30;;;2.20;;
49175;SDS011;35012;47.200;9.748;2024-03-02T03:31:15;2.50;;;2.40;;
49175;SDS011;35012;47.200;9.748;2024-03-02T03:33:41;2.50;;;2.40;;
49175;SDS011;35012;47.200;9.748;2024-03-02T03:36:06;2.90;;;2.80;;
49175;SDS011;35012;47.200;9.748;2024-03-02T03:38:32;2.30;;;2.20;;
49175;SDS011;35012;47.200;9.748;2024-03-02T03:40:57;2.67;;;2.57;;
49175;SDS011;35012;47.200;9.748;2024-03-02T03:43:23;2.17;;;2.07;;
49175;SDS011;35012;47.200;9.748;2024-03-02T03:45:48;2.40;;;2.30;;
49175;SDS011;35012;47.200;9.748;2024-03-02T03:48:14;2.20;;;2.10;;
49175;SDS011;35012;47.200;9.748;2024-03-02T03:50:40;2.40;;;2.30;;
49175;SDS011;35012;47.200;9.748;2024-03-02T03:53:06;2.60;;;2.50;;
49175;SDS011;35012;47.200;9.748;2024-03-02T03:55:31;2.60;;;2.50;;
49175;SDS011;35012;47.200;9.748;2024-03-02T03:57:57;2.40;;;2.30;;
49175;SDS011;35012;47.200;9.748;2024-03-02T04:00:22;2.60;;;2.50;;
49175;SDS011;35012;47.200;9.748;2024-03-02T04:02:48;2.80;;;2.70;;
49175;SDS011;35012;47.200;9.748;2024-03-02T04:05:13;2.30;;;2.20;;
49175;SDS011;35012;47.200;9.748;2024-03-02T04:07:39;2.47;;;2.37;;
49175;SDS011;35012;47.200;9.748;2024-03-02T04:10:06;2.33;;;2.23;;
49175;SDS011;35012;47.200;9.748;2024-03-02T04:12:33;2.40;;;2.30;;
49175;SDS011;35012;47.200;9.748;2024-03-02T04:15:00;2.87;;;2.77;;
49175;SDS011;35012;47.200;9.748;2024-03-02T04:17:27;2.60;;;2.50;;
49175;SDS011;35012;47.200;9.748;2024-03-02T04:19:52;2.50;;;2.40;;
49175;SDS011;35012;47.200;9.748;2024-03-02T04:22:18;3.53;;;3.27;;
49175;SDS011;35012;47.200;9.748;2024-03-02T04:24:43;3.00;;;2.90;;
49175;SDS011;35012;47.200;9.748;2024-03-02T04:27:09;2.77;;;2.67;;
49175;SDS011;35012;47.200;9.748;2024-03-02T04:29:34;2.90;;;2.80;;
49175;SDS011;35012;47.200;9.748;2024-03-02T04:32:00;2.33;;;2.23;;
49175;SDS011;35012;47.200;9.748;2024-03-02T04:34:25;3.10;;;2.90;;
49175;SDS011;35012;47.200;9.748;2024-03-02T04:36:51;2.40;;;2.30;;
49175;SDS011;35012;47.200;9.748;2024-03-02T04:39:16;2.60;;;2.50;;
49175;SDS011;35012;47.200;9.748;2024-03-02T04:41:42;2.50;;;2.40;;
49175;SDS011;35012;47.200;9.748;2024-03-02T04:44:07;3.57;;;3.37;;
49175;SDS011;35012;47.200;9.748;2024-03-02T04:46:33;2.53;;;2.43;;
49175;SDS011;35012;47.200;9.748;2024-03-02T04:48:59;2.70;;;2.60;;
49175;SDS011;35012;47.200;9.748;2024-03-02T04:51:24;2.87;;;2.77;;
49175;SDS011;35012;47.200;9.748;2024-03-02T04:53:50;2.30;;;2.20;;
49175;SDS011;35012;47.200;9.748;2024-03-02T04:56:15;2.40;;;2.30;;
49175;SDS011;35012;47.200;9.748;2024-03-02T04:58:53;2.50;;;2.40;;
49175;SDS011;35012;47.200;9.748;2024-03-02T05:01:19;2.27;;;2.17;;
49175;SDS011;35012;47.200;9.748;2024-03-02T05:03:45;1.97;;;1.90;;
49175;SDS011;35012;47.200;9.748;2024-03-02T05:06:12;2.60;;;2.50;;
49175;SDS011;35012;47.200;9.748;2024-03-02T05:08:38;2.67;;;2.57;;
49175;SDS011;35012;47.200;9.748;2024-03-02T05:11:05;2.50;;;2.40;;
49175;SDS011;35012;47.200;9.748;2024-03-02T05:13:49;2.57;;;2.47;;
49175;SDS011;35012;47.200;9.748;2024-03-02T05:16:15;2.30;;;2.20;;
49175;SDS011;35012;47.200;9.748;2024-03-02T05:18:41;2.10;;;2.00;;
49175;SDS011;35012;47.200;9.748;2024-03-02T05:21:07;2.60;;;2.50;;
49175;SDS011;35012;47.200;9.748;2024-03-02T05:23:33;2.27;;;2.17;;
49175;SDS011;35012;47.200;9.748;2024-03-02T05:25:59;2.63;;;2.53;;
49175;SDS011;35012;47.200;9.748;2024-03-02T05:28:25;2.30;;;2.20;;
49175;SDS011;35012;47.200;9.748;2024-03-02T05:30:51;2.50;;;2.40;;
49175;SDS011;35012;47.200;9.748;2024-03-02T05:33:18;2.30;;;2.20;;
49175;SDS011;35012;47.200;9.748;2024-03-02T05:35:44;1.83;;;1.83;;
49175;SDS011;35012;47.200;9.748;2024-03-02T05:38:10;2.60;;;2.50;;
49175;SDS011;35012;47.200;9.748;2024-03-02T05:40:36;2.80;;;2.70;;
49175;SDS011;35012;47.200;9.748;2024-03-02T05:43:03;2.73;;;2.63;;
49175;SDS011;35012;47.200;9.748;2024-03-02T05:45:29;2.70;;;2.60;;
49175;SDS011;35012;47.200;9.748;2024-03-02T05:47:54;2.30;;;2.20;;
49175;SDS011;35012;47.200;9.748;2024-03-02T05:50:20;2.70;;;2.60;;
49175;SDS011;35012;47.200;9.748;2024-03-02T05:52:46;2.87;;;2.73;;
49175;SDS011;35012;47.200;9.748;2024-03-02T05:55:12;2.07;;;1.97;;
49175;SDS011;35012;47.200;9.748;2024-03-02T05:57:38;2.47;;;2.37;;
49175;SDS011;35012;47.200;9.748;2024-03-02T06:00:24;2.47;;;2.37;;
49175;SDS011;35012;47.200;9.748;2024-03-02T06:02:50;3.13;;;2.80;;
49175;SDS011;35012;47.200;9.748;2024-03-02T06:05:16;2.70;;;2.60;;
49175;SDS011;35012;47.200;9.748;2024-03-02T06:07:44;2.33;;;2.23;;
49175;SDS011;35012;47.200;9.748;2024-03-02T06:10:11;2.30;;;2.20;;
49175;SDS011;35012;47.200;9.748;2024-03-02T06:12:37;2.43;;;2.33;;
49175;SDS011;35012;47.200;9.748;2024-03-02T06:15:04;2.60;;;2.50;;
49175;SDS011;35012;47.200;9.748;2024-03-02T06:17:31;2.63;;;2.53;;
49175;SDS011;35012;47.200;9.748;2024-03-02T06:19:57;3.20;;;3.10;;
49175;SDS011;35012;47.200;9.748;2024-03-02T06:22:23;2.67;;;2.57;;
49175;SDS011;35012;47.200;9.748;2024-03-02T06:24:51;2.33;;;2.23;;
49175;SDS011;35012;47.200;9.748;2024-03-02T06:27:18;2.50;;;2.40;;
49175;SDS011;35012;47.200;9.748;2024-03-02T06:29:45;2.60;;;2.50;;
49175;SDS011;35012;47.200;9.748;2024-03-02T06:32:14;3.00;;;2.90;;
49175;SDS011;35012;47.200;9.748;2024-03-02T06:34:42;3.63;;;3.50;;
49175;SDS011;35012;47.200;9.748;2024-03-02T06:37:10;4.40;;;4.20;;
49175;SDS011;35012;47.200;9.748;2024-03-02T06:39:38;3.10;;;3.00;;
49175;SDS011;35012;47.200;9.748;2024-03-02T06:42:04;6.97;;;4.33;;
49175;SDS011;35012;47.200;9.748;2024-03-02T06:44:31;2.87;;;2.77;;
49175;SDS011;35012;47.200;9.748;2024-03-02T06:47:00;3.13;;;3.03;;
49175;SDS011;35012;47.200;9.748;2024-03-02T06:49:26;3.00;;;2.90;;
49175;SDS011;35012;47.200;9.748;2024-03-02T06:51:54;3.63;;;3.40;;
49175;SDS011;35012;47.200;9.748;2024-03-02T06:54:21;2.87;;;2.77;;
49175;SDS011;35012;47.200;9.748;2024-03-02T06:56:47;2.93;;;2.83;;
49175;SDS011;35012;47.200;9.748;2024-03-02T06:59:15;2.80;;;2.70;;
49175;SDS011;35012;47.200;9.748;2024-03-02T07:01:47;3.00;;;2.90;;
49175;SDS011;35012;47.200;9.748;2024-03-02T07:04:14;2.53;;;2.43;;
49175;SDS011;35012;47.200;9.748;2024-03-02T07:06:41;3.87;;;3.67;;
49175;SDS011;35012;47.200;9.748;2024-03-02T07:09:08;2.70;;;2.60;;
49175;SDS011;35012;47.200;9.748;2024-03-02T07:11:36;3.37;;;3.17;;
49175;SDS011;35012;47.200;9.748;2024-03-02T07:14:03;3.17;;;2.77;;
49175;SDS011;35012;47.200;9.748;2024-03-02T07:16:30;3.40;;;3.20;;
49175;SDS011;35012;47.200;9.748;2024-03-02T07:18:59;5.73;;;3.60;;
49175;SDS011;35012;47.200;9.748;2024-03-02T07:21:27;3.10;;;3.00;;
49175;SDS011;35012;47.200;9.748;2024-03-02T07:23:53;3.40;;;3.20;;
49175;SDS011;35012;47.200;9.748;2024-03-02T07:26:19;3.10;;;3.00;;
49175;SDS011;35012;47.200;9.748;2024-03-02T07:28:46;6.07;;;5.60;;
49175;SDS011;35012;47.200;9.748;2024-03-02T07:31:13;10.23;;;8.90;;
49175;SDS011;35012;47.200;9.748;2024-03-02T07:33:39;8.33;;;7.53;;
49175;SDS011;35012;47.200;9.748;2024-03-02T07:36:04;5.17;;;4.73;;
49175;SDS011;35012;47.200;9.748;2024-03-02T07:38:30;5.27;;;4.87;;
49175;SDS011;35012;47.200;9.748;2024-03-02T07:40:59;3.07;;;2.97;;
49175;SDS011;35012;47.200;9.748;2024-03-02T07:43:26;3.20;;;3.00;;
49175;SDS011;35012;47.200;9.748;2024-03-02T07:45:53;2.50;;;2.40;;
49175;SDS011;35012;47.200;9.748;2024-03-02T07:48:21;3.47;;;3.27;;
49175;SDS011;35012;47.200;9.748;2024-03-02T07:50:47;3.00;;;2.77;;
49175;SDS011;35012;47.200;9.748;2024-03-02T07:53:14;2.63;;;2.53;;
49175;SDS011;35012;47.200;9.748;2024-03-02T07:55:41;2.40;;;2.30;;
49175;SDS011;35012;47.200;9.748;2024-03-02T07:58:07;2.63;;;2.13;;
49175;SDS011;35012;47.200;9.748;2024-03-02T08:00:38;2.60;;;2.50;;
49175;SDS011;35012;47.200;9.748;2024-03-02T08:03:06;2.53;;;2.43;;
49175;SDS011;35012;47.200;9.748;2024-03-02T08:05:36;2.50;;;2.40;;
49175;SDS011;35012;47.200;9.748;2024-03-02T08:08:04;2.83;;;2.73;;
49175;SDS011;35012;47.200;9.748;2024-03-02T08:10:31;2.43;;;2.33;;
49175;SDS011;35012;47.200;9.748;2024-03-02T08:12:59;4.00;;;2.60;;
49175;SDS011;35012;47.200;9.748;2024-03-02T08:15:25;2.87;;;2.77;;
49175;SDS011;35012;47.200;9.748;2024-03-02T08:17:52;2.70;;;2.60;;
49175;SDS011;35012;47.200;9.748;2024-03-02T08:20:19;2.77;;;2.57;;
49175;SDS011;35012;47.200;9.748;2024-03-02T08:22:47;3.23;;;2.67;;
49175;SDS011;35012;47.200;9.748;2024-03-02T08:25:14;2.33;;;2.23;;
49175;SDS011;35012;47.200;9.748;2024-03-02T08:27:41;1.50;;;1.50;;
49175;SDS011;35012;47.200;9.748;2024-03-02T08:30:08;4.77;;;2.53;;
49175;SDS011;35012;47.200;9.748;2024-03-02T08:32:36;2.13;;;2.03;;
49175;SDS011;35012;47.200;9.748;2024-03-02T08:35:03;1.50;;;1.50;;
49175;SDS011;35012;47.200;9.748;2024-03-02T08:37:30;2.00;;;1.90;;
49175;SDS011;35012;47.200;9.748;2024-03-02T08:39:57;1.47;;;1.47;;
49175;SDS011;35012;47.200;9.748;2024-03-02T08:42:23;1.77;;;1.67;;
49175;SDS011;35012;47.200;9.748;2024-03-02T08:44:51;1.17;;;1.17;;
49175;SDS011;35012;47.200;9.748;2024-03-02T08:47:19;1.87;;;1.77;;
49175;SDS011;35012;47.200;9.748;2024-03-02T08:49:47;1.10;;;1.10;;
49175;SDS011;35012;47.200;9.748;2024-03-02T08:52:14;1.40;;;1.40;;
49175;SDS011;35012;47.200;9.748;2024-03-02T08:54:41;1.70;;;1.60;;
49175;SDS011;35012;47.200;9.748;2024-03-02T08:57:08;1.23;;;1.23;;
49175;SDS011;35012;47.200;9.748;2024-03-02T08:59:35;1.50;;;1.50;;
49175;SDS011;35012;47.200;9.748;2024-03-02T09:02:01;1.30;;;1.30;;
49175;SDS011;35012;47.200;9.748;2024-03-02T09:04:31;1.43;;;1.40;;
49175;SDS011;35012;47.200;9.748;2024-03-02T09:06:58;1.23;;;1.23;;
49175;SDS011;35012;47.200;9.748;2024-03-02T09:09:26;1.40;;;1.40;;
49175;SDS011;35012;47.200;9.748;2024-03-02T09:11:52;1.77;;;1.67;;
49175;SDS011;35012;47.200;9.748;2024-03-02T09:14:23;2.43;;;2.23;;
49175;SDS011;35012;47.200;9.748;2024-03-02T09:16:49;2.13;;;1.93;;
49175;SDS011;35012;47.200;9.748;2024-03-02T09:19:15;1.60;;;1.50;;
49175;SDS011;35012;47.200;9.748;2024-03-02T09:21:42;1.73;;;1.63;;
49175;SDS011;35012;47.200;9.748;2024-03-02T09:24:10;1.70;;;1.60;;
49175;SDS011;35012;47.200;9.748;2024-03-02T09:26:37;1.30;;;1.30;;
49175;SDS011;35012;47.200;9.748;2024-03-02T09:29:04;1.10;;;1.10;;
49175;SDS011;35012;47.200;9.748;2024-03-02T09:31:29;1.43;;;1.43;;
49175;SDS011;35012;47.200;9.748;2024-03-02T09:33:55;1.30;;;1.30;;
49175;SDS011;35012;47.200;9.748;2024-03-02T09:36:21;1.70;;;1.60;;
49175;SDS011;35012;47.200;9.748;2024-03-02T09:38:47;1.40;;;1.40;;
49175;SDS011;35012;47.200;9.748;2024-03-02T09:41:14;1.30;;;1.30;;
49175;SDS011;35012;47.200;9.748;2024-03-02T09:43:40;1.17;;;1.17;;
49175;SDS011;35012;47.200;9.748;2024-03-02T09:46:06;2.63;;;1.63;;
49175;SDS011;35012;47.200;9.748;2024-03-02T09:48:35;1.67;;;1.67;;
49175;SDS011;35012;47.200;9.748;2024-03-02T09:51:01;1.97;;;1.87;;
49175;SDS011;35012;47.200;9.748;2024-03-02T09:53:31;1.40;;;1.40;;
49175;SDS011;35012;47.200;9.748;2024-03-02T09:56:01;1.40;;;1.40;;
49175;SDS011;35012;47.200;9.748;2024-03-02T09:58:27;1.40;;;1.40;;
49175;SDS011;35012;47.200;9.748;2024-03-02T10:00:52;1.20;;;1.20;;
49175;SDS011;35012;47.200;9.748;2024-03-02T10:03:21;1.20;;;1.20;;
49175;SDS011;35012;47.200;9.748;2024-03-02T10:05:48;1.23;;;1.23;;
49175;SDS011;35012;47.200;9.748;2024-03-02T10:08:13;1.10;;;1.10;;
49175;SDS011;35012;47.200;9.748;2024-03-02T10:10:40;1.40;;;1.40;;
49175;SDS011;35012;47.200;9.748;2024-03-02T10:13:07;1.33;;;1.20;;
49175;SDS011;35012;47.200;9.748;2024-03-02T10:15:34;1.20;;;1.20;;
49175;SDS011;35012;47.200;9.748;2024-03-02T10:18:03;1.30;;;1.30;;
49175;SDS011;35012;47.200;9.748;2024-03-02T10:20:31;1.73;;;1.63;;
49175;SDS011;35012;47.200;9.748;2024-03-02T10:23:09;1.10;;;1.10;;
49175;SDS011;35012;47.200;9.748;2024-03-02T10:25:40;1.30;;;1.30;;
49175;SDS011;35012;47.200;9.748;2024-03-02T10:28:09;1.20;;;1.20;;
49175;SDS011;35012;47.200;9.748;2024-03-02T10:30:35;1.30;;;1.30;;
49175;SDS011;35012;47.200;9.748;2024-03-02T10:33:02;1.10;;;1.10;;
49175;SDS011;35012;47.200;9.748;2024-03-02T10:35:28;1.20;;;1.20;;
49175;SDS011;35012;47.200;9.748;2024-03-02T10:37:58;2.03;;;1.80;;
49175;SDS011;35012;47.200;9.748;2024-03-02T10:40:26;1.40;;;1.40;;
49175;SDS011;35012;47.200;9.748;2024-03-02T10:42:53;1.20;;;1.20;;
49175;SDS011;35012;47.200;9.748;2024-03-02T10:45:20;1.53;;;1.43;;
49175;SDS011;35012;47.200;9.748;2024-03-02T10:47:48;1.20;;;1.20;;
49175;SDS011;35012;47.200;9.748;2024-03-02T10:50:15;0.90;;;0.90;;
49175;SDS011;35012;47.200;9.748;2024-03-02T10:52:41;1.23;;;1.23;;
49175;SDS011;35012;47.200;9.748;2024-03-02T10:55:11;1.00;;;1.00;;
49175;SDS011;35012;47.200;9.748;2024-03-02T10:57:51;1.50;;;1.40;;
49175;SDS011;35012;47.200;9.748;2024-03-02T11:00:19;1.20;;;1.20;;
49175;SDS011;35012;47.200;9.748;2024-03-02T11:02:57;1.20;;;1.20;;
49175;SDS011;35012;47.200;9.748;2024-03-02T11:05:31;1.13;;;1.13;;
49175;SDS011;35012;47.200;9.748;2024-03-02T11:08:02;1.10;;;1.10;;
49175;SDS011;35012;47.200;9.748;2024-03-02T11:10:37;1.20;;;1.20;;
49175;SDS011;35012;47.200;9.748;2024-03-02T11:13:33;1.60;;;1.50;;
49175;SDS011;35012;47.200;9.748;2024-03-02T11:16:08;1.40;;;1.30;;
49175;SDS011;35012;47.200;9.748;2024-03-02T11:18:44;1.03;;;1.03;;
49175;SDS011;35012;47.200;9.748;2024-03-02T11:21:10;1.80;;;1.70;;
49175;SDS011;35012;47.200;9.748;2024-03-02T11:23:37;1.00;;;1.00;;
49175;SDS011;35012;47.200;9.748;2024-03-02T11:26:22;1.30;;;1.30;;
49175;SDS011;35012;47.200;9.748;2024-03-02T11:28:50;2.33;;;2.17;;
49175;SDS011;35012;47.200;9.748;2024-03-02T11:31:17;1.30;;;1.30;;
49175;SDS011;35012;47.200;9.748;2024-03-02T11:33:45;1.27;;;1.27;;
49175;SDS011;35012;47.200;9.748;2024-03-02T11:36:11;1.30;;;1.30;;
49175;SDS011;35012;47.200;9.748;2024-03-02T11:38:38;1.40;;;1.40;;
49175;SDS011;35012;47.200;9.748;2024-03-02T11:41:06;1.30;;;1.30;;
49175;SDS011;35012;47.200;9.748;2024-03-02T11:43:39;1.10;;;1.10;;
49175;SDS011;35012;47.200;9.748;2024-03-02T11:46:06;3.13;;;1.40;;
49175;SDS011;35012;47.200;9.748;2024-03-02T11:48:38;1.73;;;1.63;;
49175;SDS011;35012;47.200;9.748;2024-03-02T11:51:05;1.80;;;1.70;;
49175;SDS011;35012;47.200;9.748;2024-03-02T11:53:31;1.03;;;1.03;;
49175;SDS011;35012;47.200;9.748;2024-03-02T11:55:59;1.30;;;1.30;;
49175;SDS011;35012;47.200;9.748;2024-03-02T11:58:28;1.50;;;1.50;;
49175;SDS011;35012;47.200;9.748;2024-03-02T12:00:57;1.40;;;1.40;;
49175;SDS011;35012;47.200;9.748;2024-03-02T12:03:24;1.20;;;1.20;;
49175;SDS011;35012;47.200;9.748;2024-03-02T12:05:55;1.43;;;1.43;;
49175;SDS011;35012;47.200;9.748;2024-03-02T12:08:22;1.37;;;1.37;;
49175;SDS011;35012;47.200;9.748;2024-03-02T12:10:59;1.30;;;1.30;;
49175;SDS011;35012;47.200;9.748;2024-03-02T12:13:27;1.73;;;1.63;;
49175;SDS011;35012;47.200;9.748;2024-03-02T12:15:55;1.50;;;1.50;;
49175;SDS011;35012;47.200;9.748;2024-03-02T12:18:22;1.40;;;1.40;;
49175;SDS011;35012;47.200;9.748;2024-03-02T12:20:49;1.60;;;1.53;;
49175;SDS011;35012;47.200;9.748;2024-03-02T12:23:22;1.10;;;1.10;;
49175;SDS011;35012;47.200;9.748;2024-03-02T12:25:48;1.30;;;1.30;;
49175;SDS011;35012;47.200;9.748;2024-03-02T12:28:14;1.67;;;1.60;;
49175;SDS011;35012;47.200;9.748;2024-03-02T12:30:40;1.40;;;1.40;;
49175;SDS011;35012;47.200;9.748;2024-03-02T12:33:07;1.43;;;1.43;;
49175;SDS011;35012;47.200;9.748;2024-03-02T12:35:33;1.87;;;1.77;;
49175;SDS011;35012;47.200;9.748;2024-03-02T12:37:59;1.67;;;1.67;;
49175;SDS011;35012;47.200;9.748;2024-03-02T12:40:26;1.60;;;1.50;;
49175;SDS011;35012;47.200;9.748;2024-03-02T12:42:52;2.10;;;2.00;;
49175;SDS011;35012;47.200;9.748;2024-03-02T12:45:19;1.93;;;1.87;;
49175;SDS011;35012;47.200;9.748;2024-03-02T12:47:49;1.33;;;1.27;;
49175;SDS011;35012;47.200;9.748;2024-03-02T12:50:17;5.40;;;5.20;;
49175;SDS011;35012;47.200;9.748;2024-03-02T12:52:43;3.50;;;3.40;;
49175;SDS011;35012;47.200;9.748;2024-03-02T12:55:10;2.23;;;2.13;;
49175;SDS011;35012;47.200;9.748;2024-03-02T12:57:37;1.63;;;1.63;;
49175;SDS011;35012;47.200;9.748;2024-03-02T13:00:08;1.10;;;1.10;;
49175;SDS011;35012;47.200;9.748;2024-03-02T13:02:41;1.20;;;1.20;;
49175;SDS011;35012;47.200;9.748;2024-03-02T13:05:08;1.00;;;1.00;;
49175;SDS011;35012;47.200;9.748;2024-03-02T13:07:37;1.00;;;1.00;;
49175;SDS011;35012;47.200;9.748;2024-03-02T13:10:04;1.08;;;1.08;;
49175;SDS011;35012;47.200;9.748;2024-03-02T13:12:33;1.35;;;1.35;;
49175;SDS011;35012;47.200;9.748;2024-03-02T13:15:01;2.13;;;2.03;;
49175;SDS011;35012;47.200;9.748;2024-03-02T13:17:30;2.20;;;2.10;;
49175;SDS011;35012;47.200;9.748;2024-03-02T13:19:59;2.28;;;2.17;;
49175;SDS011;35012;47.200;9.748;2024-03-02T13:22:26;1.95;;;1.90;;
49175;SDS011;35012;47.200;9.748;2024-03-02T13:24:53;2.65;;;2.55;;
49175;SDS011;35012;47.200;9.748;2024-03-02T13:27:20;2.43;;;2.33;;
49175;SDS011;35012;47.200;9.748;2024-03-02T13:29:47;1.80;;;1.70;;
49175;SDS011;35012;47.200;9.748;2024-03-02T13:32:16;1.17;;;1.17;;
49175;SDS011;35012;47.200;9.748;2024-03-02T13:34:50;1.10;;;1.10;;
49175;SDS011;35012;47.200;9.748;2024-03-02T13:37:16;1.13;;;1.13;;
49175;SDS011;35012;47.200;9.748;2024-03-02T13:39:43;1.30;;;1.30;;
49175;SDS011;35012;47.200;9.748;2024-03-02T13:42:09;0.90;;;0.90;;
49175;SDS011;35012;47.200;9.748;2024-03-02T13:44:38;1.00;;;1.00;;
49175;SDS011;35012;47.200;9.748;2024-03-02T13:47:05;1.27;;;1.27;;
49175;SDS011;35012;47.200;9.748;2024-03-02T13:49:32;1.60;;;1.60;;
49175;SDS011;35012;47.200;9.748;2024-03-02T13:52:07;1.50;;;1.50;;
49175;SDS011;35012;47.200;9.748;2024-03-02T13:54:41;1.67;;;1.67;;
49175;SDS011;35012;47.200;9.748;2024-03-02T13:57:09;1.70;;;1.70;;
49175;SDS011;35012;47.200;9.748;2024-03-02T13:59:36;1.47;;;1.47;;
49175;SDS011;35012;47.200;9.748;2024-03-02T14:02:06;1.27;;;1.27;;
49175;SDS011;35012;47.200;9.748;2024-03-02T14:04:36;1.50;;;1.40;;
49175;SDS011;35012;47.200;9.748;2024-03-02T14:07:02;1.30;;;1.30;;
49175;SDS011;35012;47.200;9.748;2024-03-02T14:09:28;1.00;;;1.00;;
49175;SDS011;35012;47.200;9.748;2024-03-02T14:11:55;1.20;;;1.20;;
49175;SDS011;35012;47.200;9.748;2024-03-02T14:14:22;0.90;;;0.90;;
49175;SDS011;35012;47.200;9.748;2024-03-02T14:16:49;1.00;;;1.00;;
49175;SDS011;35012;47.200;9.748;2024-03-02T14:19:15;0.90;;;0.90;;
49175;SDS011;35012;47.200;9.748;2024-03-02T14:21:42;0.83;;;0.83;;
49175;SDS011;35012;47.200;9.748;2024-03-02T14:24:09;1.03;;;1.03;;
49175;SDS011;35012;47.200;9.748;2024-03-02T14:26:36;1.00;;;1.00;;
49175;SDS011;35012;47.200;9.748;2024-03-02T14:29:03;1.00;;;1.00;;
49175;SDS011;35012;47.200;9.748;2024-03-02T14:31:29;1.00;;;1.00;;
49175;SDS011;35012;47.200;9.748;2024-03-02T14:33:56;1.00;;;1.00;;
49175;SDS011;35012;47.200;9.748;2024-03-02T14:36:23;1.20;;;1.20;;
49175;SDS011;35012;47.200;9.748;2024-03-02T14:38:51;1.23;;;1.17;;
49175;SDS011;35012;47.200;9.748;2024-03-02T14:41:17;1.03;;;1.03;;
49175;SDS011;35012;47.200;9.748;2024-03-02T14:43:43;1.50;;;1.50;;
49175;SDS011;35012;47.200;9.748;2024-03-02T14:46:09;1.53;;;1.50;;
49175;SDS011;35012;47.200;9.748;2024-03-02T14:48:36;1.30;;;1.30;;
49175;SDS011;35012;47.200;9.748;2024-03-02T14:51:03;1.50;;;1.50;;